メインページ
METAR-TAF:

METAR-TAF

空港 :

コペンハーゲン空港

コペンハーゲン, デンマーク

緯度: 55-37N, 経度: 012-39E, 海抜: 5m

現時点の気象観測

当レポートは36分前の03:20(UTC)に作成
南/南東の風 17kt
気温 5°C
湿度 81%
気圧 991 hPa
視程10km以上
高度1700ftの千切れ雲あり

METAR: EKCH 130320Z 15017KT 9999 BKN017 05/02 Q0991 TEMPO 16020G30KT BKN012

時間: 04:56 (03:56 UTC)

予報

当レポートは4時間53分前の23:03(UTC)に作成
予報は13日の 00時(UTC)から 13日の 24時(UTC)まで有効
南/南西の風 10kt
視程10km以上
高度2000ftの千切れ雲あり
13日の 00時(UTC)から 13日の 02時(UTC)まで徐々に
南/南東の風 18kt
13日の 02時(UTC)から 13日の 12時(UTC)まで一時的に
南/南東の風 22kt、最大35ktの突風を伴う
高度1200ftの千切れ雲あり
13日の 12時(UTC)から 13日の 20時(UTC)まで一時的に
東/南東の風 20kt、最大30ktの突風を伴う

TAF: EKCH 122303Z 1300/1324 20010KT 9999 BKN020 BECMG 1300/1302 16018KT TEMPO 1302/1312 15022G35KT BKN012 TEMPO 1312/1320 12020G30KT

4,000以上の空港の気象観測と天気予報(METAR報とTAF報)

利用可能な観測所は地図上に黄色い丸と赤い丸で示す。

丸の上にカーソルを重ねると観測所名を参照できる。

次にクリックすると気象観測と天気予報を参照できる。

マップの切り替え:黒色「×」印の緑ボタンをクリックして拡大、「-」印の緑ボタンをクリックして縮小、緑色の三角印をクリックして隣りの地図に切り替え


METAR-TAF: